createdAt,value
2022-11-12T00:00:14.705Z,103059.00
2022-11-12T00:02:44.410Z,103066.66
2022-11-12T00:05:14.136Z,103055.72
2022-11-12T00:07:43.942Z,103045.00
2022-11-12T00:10:13.736Z,103038.72
2022-11-12T00:12:43.453Z,103046.41
2022-11-12T00:15:16.556Z,103057.69
2022-11-12T00:17:46.700Z,103060.94
2022-11-12T00:20:16.419Z,103061.72
2022-11-12T00:22:46.303Z,103059.09
2022-11-12T00:25:16.042Z,103052.00
2022-11-12T00:27:45.762Z,103051.09
2022-11-12T00:30:19.758Z,103055.34
2022-11-12T00:32:49.455Z,103069.25
2022-11-12T00:35:19.313Z,103062.19
2022-11-12T00:37:49.015Z,103052.59
2022-11-12T00:40:19.271Z,103051.69
2022-11-12T00:42:48.985Z,103049.88
2022-11-12T00:45:21.374Z,103066.28
2022-11-12T00:47:51.128Z,103041.72
2022-11-12T00:50:21.170Z,103051.22
2022-11-12T00:52:50.887Z,103055.34
2022-11-12T00:55:20.566Z,103067.47
2022-11-12T00:57:50.240Z,103063.78
2022-11-12T01:00:23.051Z,103064.50
2022-11-12T01:02:52.735Z,103049.41
2022-11-12T01:05:22.999Z,103050.34
2022-11-12T01:07:55.966Z,103047.59
2022-11-12T01:10:26.139Z,103058.13
2022-11-12T01:12:55.834Z,103065.78
2022-11-12T01:15:28.174Z,103077.06
2022-11-12T01:17:57.900Z,103075.03
2022-11-12T01:20:27.645Z,103072.97
2022-11-12T01:22:57.374Z,103065.66
2022-11-12T01:25:27.039Z,103058.47
2022-11-12T01:27:56.767Z,103068.88
2022-11-12T01:30:29.140Z,103065.22
2022-11-12T01:32:59.447Z,103072.19
2022-11-12T01:35:29.140Z,103063.16
2022-11-12T01:37:58.891Z,103065.69
2022-11-12T01:40:28.662Z,103059.28
2022-11-12T01:42:58.421Z,103073.22
2022-11-12T01:45:30.812Z,103068.97
2022-11-12T01:48:00.549Z,103069.22
2022-11-12T01:50:35.048Z,103048.78
2022-11-12T01:53:09.014Z,103054.72
2022-11-12T01:55:40.923Z,103054.56
2022-11-12T01:58:14.425Z,103068.97
2022-11-12T02:00:47.028Z,103066.00
2022-11-12T02:03:21.737Z,103056.31
2022-11-12T02:05:56.111Z,103060.63
2022-11-12T02:08:27.583Z,103068.50
2022-11-12T02:10:58.762Z,103069.31
2022-11-12T02:13:41.019Z,103064.72
2022-11-12T02:16:14.156Z,103060.38
2022-11-12T02:18:43.955Z,103057.66
2022-11-12T02:21:14.033Z,103057.66
2022-11-12T02:23:46.921Z,103057.53
2022-11-12T02:26:16.640Z,103053.09
2022-11-12T02:28:46.428Z,103048.75
2022-11-12T02:31:16.120Z,103061.06
2022-11-12T02:33:45.915Z,103058.56
2022-11-12T02:36:15.629Z,103056.72
2022-11-12T02:38:47.986Z,103059.47
2022-11-12T02:41:17.852Z,103059.47
2022-11-12T02:43:47.622Z,103068.25
2022-11-12T02:46:17.766Z,103071.78
2022-11-12T02:48:47.592Z,103074.41
2022-11-12T02:51:17.511Z,103078.66
2022-11-12T02:53:49.904Z,103067.34
2022-11-12T02:56:19.691Z,103061.97
2022-11-12T02:58:49.719Z,103061.88
2022-11-12T03:01:19.463Z,103073.16
2022-11-12T03:03:50.456Z,103069.50
2022-11-12T03:06:20.191Z,103071.22
2022-11-12T03:08:52.686Z,103067.00
2022-11-12T03:11:22.384Z,103055.59
2022-11-12T03:13:52.113Z,103062.66
2022-11-12T03:16:21.792Z,103065.97
2022-11-12T03:18:51.534Z,103068.59
2022-11-12T03:21:21.285Z,103057.31
2022-11-12T03:23:54.916Z,103059.00
2022-11-12T03:26:24.662Z,103053.66
2022-11-12T03:28:54.599Z,103060.63
2022-11-12T03:31:24.345Z,103067.44
2022-11-12T03:33:54.063Z,103071.78
2022-11-12T03:36:23.871Z,103065.38
2022-11-12T03:38:56.204Z,103048.72
2022-11-12T03:41:25.938Z,103058.31
2022-11-12T03:43:55.660Z,103054.66
2022-11-12T03:46:25.319Z,103063.34
2022-11-12T03:48:55.004Z,103066.75
2022-11-12T03:51:24.711Z,103065.69
2022-11-12T03:53:57.051Z,103067.31
2022-11-12T03:56:26.764Z,103070.84
2022-11-12T03:58:56.457Z,103073.47
2022-11-12T04:01:26.230Z,103067.31
2022-11-12T04:03:55.977Z,103073.47
2022-11-12T04:06:38.456Z,103067.41
2022-11-12T04:09:10.796Z,103056.91
2022-11-12T04:11:40.494Z,103052.56
2022-11-12T04:14:10.212Z,103057.97
2022-11-12T04:16:52.346Z,103054.66
2022-11-12T04:19:34.435Z,103055.47
2022-11-12T04:22:06.945Z,103070.41
2022-11-12T04:24:53.662Z,103068.00
2022-11-12T04:27:25.928Z,103061.16
2022-11-12T04:30:08.655Z,103051.72
2022-11-12T04:32:40.323Z,103050.91
2022-11-12T04:35:11.888Z,103051.94
2022-11-12T04:37:48.639Z,103054.69
2022-11-12T04:40:47.531Z,103061.06
2022-11-12T04:43:31.554Z,103059.72
2022-11-12T04:46:02.780Z,103056.53
2022-11-12T04:48:32.883Z,103050.69
2022-11-12T04:51:24.399Z,103061.44
2022-11-12T04:53:54.108Z,103062.59
2022-11-12T04:56:26.408Z,103058.47
2022-11-12T04:58:56.101Z,103048.22
2022-11-12T05:01:25.858Z,103042.38
2022-11-12T05:03:56.010Z,103040.78
2022-11-12T05:06:38.181Z,103053.91
2022-11-12T05:09:07.895Z,103057.69
2022-11-12T05:11:40.220Z,103062.25
2022-11-12T05:14:09.916Z,103058.97
2022-11-12T05:16:39.861Z,103051.28
2022-11-12T05:19:10.034Z,103059.28
2022-11-12T05:21:52.146Z,103065.34
2022-11-12T05:24:40.368Z,103066.38
2022-11-12T05:27:16.099Z,103057.91
2022-11-12T05:29:46.464Z,103053.69
2022-11-12T05:32:18.691Z,103062.59
2022-11-12T05:34:48.427Z,103065.22
2022-11-12T05:37:18.585Z,103070.47
2022-11-12T05:39:48.286Z,103080.97
2022-11-12T05:42:20.602Z,103070.47
2022-11-12T05:44:50.308Z,103071.38
2022-11-12T05:47:20.025Z,103079.25
2022-11-12T05:49:49.766Z,103083.59
2022-11-12T05:52:19.436Z,103093.88
2022-11-12T05:54:49.136Z,103093.06
2022-11-12T05:57:21.432Z,103089.66
2022-11-12T05:59:51.141Z,103090.44
2022-11-12T06:02:20.856Z,103096.50
2022-11-12T06:04:50.578Z,103096.50
2022-11-12T06:07:20.358Z,103105.31
2022-11-12T06:09:50.079Z,103086.91
2022-11-12T06:12:22.416Z,103082.56
2022-11-12T06:14:52.112Z,103088.97
2022-11-12T06:17:21.880Z,103097.78
2022-11-12T06:19:51.607Z,103099.56
2022-11-12T06:22:21.293Z,103098.91
2022-11-12T06:24:50.976Z,103091.91
2022-11-12T06:27:24.184Z,103091.13
2022-11-12T06:29:54.226Z,103100.84
2022-11-12T06:32:24.147Z,103105.31
2022-11-12T06:34:53.899Z,103090.59
2022-11-12T06:37:24.079Z,103092.41
2022-11-12T06:39:53.929Z,103094.34
2022-11-12T06:42:26.321Z,103097.09
2022-11-12T06:44:56.052Z,103086.66
2022-11-12T06:47:25.717Z,103075.47
2022-11-12T06:49:55.411Z,103067.72
2022-11-12T06:52:25.128Z,103071.38
2022-11-12T06:54:54.813Z,103077.53
2022-11-12T06:57:27.175Z,103088.03
2022-11-12T06:59:56.867Z,103095.13
2022-11-12T07:02:26.547Z,103082.78
2022-11-12T07:04:56.286Z,103074.09
2022-11-12T07:07:26.042Z,103083.00
2022-11-12T07:09:55.795Z,103090.06
2022-11-12T07:12:28.144Z,103105.06
2022-11-12T07:14:57.829Z,103097.06
2022-11-12T07:17:27.556Z,103091.09
2022-11-12T07:20:02.367Z,103092.00
2022-11-12T07:22:35.371Z,103086.66
2022-11-12T07:25:05.093Z,103103.34
2022-11-12T07:27:37.427Z,103121.59
2022-11-12T07:30:08.679Z,103125.28
2022-11-12T07:32:44.000Z,103124.22
2022-11-12T07:35:15.739Z,103121.72
2022-11-12T07:37:45.404Z,103120.00
2022-11-12T07:40:15.593Z,103123.47
2022-11-12T07:42:48.299Z,103130.31
2022-11-12T07:45:18.239Z,103140.81
2022-11-12T07:47:47.956Z,103139.91
2022-11-12T07:50:18.082Z,103136.47
2022-11-12T07:52:47.815Z,103128.50
2022-11-12T07:55:17.731Z,103132.72
2022-11-12T07:57:50.232Z,103140.47
2022-11-12T08:00:21.276Z,103160.72
2022-11-12T08:02:50.981Z,103144.00
2022-11-12T08:05:21.646Z,103134.31
2022-11-12T08:07:51.537Z,103127.13
2022-11-12T08:10:21.514Z,103140.81
2022-11-12T08:12:54.070Z,103154.75
2022-11-12T08:15:23.757Z,103173.97
2022-11-12T08:17:53.531Z,103170.31
2022-11-12T08:20:23.220Z,103157.16
2022-11-12T08:22:53.338Z,103151.91
2022-11-12T08:25:23.001Z,103143.13
2022-11-12T08:27:59.180Z,103149.06
2022-11-12T08:30:29.439Z,103166.50
2022-11-12T08:33:00.606Z,103170.97
2022-11-12T08:35:31.719Z,103169.13
2022-11-12T08:38:02.380Z,103169.41
2022-11-12T08:40:34.244Z,103167.75
2022-11-12T08:43:09.168Z,103169.72
2022-11-12T08:45:40.921Z,103168.94
2022-11-12T08:48:14.034Z,103159.47
2022-11-12T08:50:44.460Z,103164.81
2022-11-12T08:53:16.305Z,103157.97
2022-11-12T08:55:46.039Z,103161.50
2022-11-12T08:58:18.546Z,103176.47
2022-11-12T09:00:49.984Z,103168.69
2022-11-12T09:03:21.527Z,103168.91
2022-11-12T09:05:53.708Z,103176.00
2022-11-12T09:08:26.156Z,103168.22
2022-11-12T09:10:56.359Z,103155.09
2022-11-12T09:13:31.235Z,103162.28
2022-11-12T09:16:05.424Z,103173.59
2022-11-12T09:18:36.477Z,103173.81
2022-11-12T09:21:08.502Z,103176.69
2022-11-12T09:23:40.404Z,103176.81
2022-11-12T09:26:10.668Z,103164.81
2022-11-12T09:28:43.151Z,103168.44
2022-11-12T09:31:12.988Z,103167.66
2022-11-12T09:33:42.691Z,103182.63
2022-11-12T09:36:12.859Z,103182.63
2022-11-12T09:38:42.593Z,103187.88
2022-11-12T09:41:21.953Z,103185.38
2022-11-12T09:43:56.319Z,103172.31
2022-11-12T09:46:37.012Z,103176.00
2022-11-12T09:49:14.690Z,103178.63
2022-11-12T09:51:50.658Z,103182.06
2022-11-12T09:54:27.448Z,103184.91
2022-11-12T09:56:57.870Z,103180.78
2022-11-12T09:59:34.781Z,103171.28
2022-11-12T10:02:23.823Z,103169.00
2022-11-12T10:05:13.080Z,103170.03
2022-11-12T10:07:55.823Z,103171.06
2022-11-12T10:10:37.933Z,103184.44
2022-11-12T10:13:22.279Z,103183.75
2022-11-12T10:16:22.436Z,103181.44
2022-11-12T10:19:07.150Z,103166.00
2022-11-12T10:21:43.773Z,103161.91
2022-11-12T10:24:15.147Z,103155.81
2022-11-12T10:26:44.983Z,103158.69
2022-11-12T10:29:21.379Z,103162.44
2022-11-12T10:31:53.720Z,103166.19
2022-11-12T10:34:25.522Z,103162.88
2022-11-12T10:37:00.099Z,103157.16
2022-11-12T10:39:38.637Z,103154.75
2022-11-12T10:42:11.125Z,103147.88
2022-11-12T10:44:42.561Z,103153.22
2022-11-12T10:47:34.617Z,103166.63
2022-11-12T10:50:20.835Z,103179.09
2022-11-12T10:52:59.500Z,103180.09
2022-11-12T10:55:31.171Z,103176.75
2022-11-12T10:58:24.999Z,103168.97
2022-11-12T11:01:01.030Z,103161.91
2022-11-12T11:03:37.546Z,103160.28
2022-11-12T11:06:09.396Z,103157.63
2022-11-12T11:08:45.316Z,103156.84
2022-11-12T11:11:22.675Z,103149.03
2022-11-12T11:13:55.831Z,103143.91
2022-11-12T11:16:28.022Z,103150.28
2022-11-12T11:19:02.702Z,103152.00
2022-11-12T11:21:46.069Z,103144.94
2022-11-12T11:24:30.996Z,103141.47
2022-11-12T11:27:06.934Z,103139.75
2022-11-12T11:29:52.428Z,103138.13
2022-11-12T11:32:37.399Z,103147.63
2022-11-12T11:35:20.653Z,103152.91
2022-11-12T11:38:01.329Z,103165.06
2022-11-12T11:40:34.806Z,103153.53
2022-11-12T11:43:21.276Z,103141.25
2022-11-12T11:46:08.787Z,103142.16
2022-11-12T11:48:51.973Z,103127.06
2022-11-12T11:51:47.093Z,103140.34
2022-11-12T11:54:38.100Z,103141.25
2022-11-12T11:57:14.502Z,103144.81
2022-11-12T11:59:55.972Z,103148.47
2022-11-12T12:02:42.233Z,103140.69
2022-11-12T12:05:30.040Z,103133.69
2022-11-12T12:08:07.097Z,103126.81
2022-11-12T12:13:55.871Z,103132.16
2022-11-12T12:16:37.437Z,103134.94
2022-11-12T12:19:15.970Z,103143.94
2022-11-12T12:21:52.707Z,103138.91
2022-11-12T12:24:29.730Z,103139.09
2022-11-12T12:27:04.402Z,103132.13
2022-11-12T12:29:42.171Z,103135.66
2022-11-12T12:32:23.097Z,103138.50
2022-11-12T12:34:59.268Z,103139.53
2022-11-12T12:37:38.784Z,103142.28
2022-11-12T12:40:19.113Z,103137.09
2022-11-12T12:42:55.452Z,103127.56
2022-11-12T12:45:39.808Z,103120.69
2022-11-12T12:48:23.535Z,103115.44
2022-11-12T12:50:55.440Z,103118.06
2022-11-12T12:53:38.615Z,103116.34
2022-11-12T12:56:50.243Z,103109.34
2022-11-12T12:59:23.962Z,103111.06
2022-11-12T13:02:00.554Z,103106.72
2022-11-12T13:04:55.865Z,103103.19
2022-11-12T13:07:43.449Z,103097.81
2022-11-12T13:10:56.182Z,103095.97
2022-11-12T13:13:41.046Z,103095.06
2022-11-12T13:16:11.006Z,103094.16
2022-11-12T13:19:03.057Z,103095.97
2022-11-12T13:21:33.401Z,103093.25
2022-11-12T13:24:11.222Z,103094.97
2022-11-12T13:26:48.069Z,103084.41
2022-11-12T13:29:47.606Z,103089.81
2022-11-12T13:32:39.547Z,103091.72
2022-11-12T13:35:29.309Z,103084.75
2022-11-12T13:38:02.175Z,103083.13
2022-11-12T13:40:45.007Z,103087.69
2022-11-12T13:43:38.438Z,103089.63
2022-11-12T13:46:28.108Z,103084.47
2022-11-12T13:49:03.236Z,103083.31
2022-11-12T13:51:43.094Z,103080.81
2022-11-12T13:54:35.391Z,103078.28
2022-11-12T13:57:33.259Z,103074.84
2022-11-12T14:00:22.883Z,103085.38
2022-11-12T14:02:57.420Z,103077.34
2022-11-12T14:05:29.516Z,103080.81
2022-11-12T14:08:16.752Z,103072.09
2022-11-12T14:10:58.392Z,103073.94
2022-11-12T14:13:46.671Z,103073.22
2022-11-12T14:16:36.968Z,103068.97
2022-11-12T14:19:26.959Z,103074.31
2022-11-12T14:22:04.223Z,103063.09
2022-11-12T14:24:35.873Z,103056.19
2022-11-12T14:27:05.607Z,103057.31
2022-11-12T14:29:38.809Z,103047.78
2022-11-12T14:32:12.146Z,103047.00
2022-11-12T14:34:44.470Z,103040.78
2022-11-12T14:37:41.662Z,103041.72
2022-11-12T14:40:19.431Z,103043.34
2022-11-12T14:42:49.516Z,103044.94
2022-11-12T14:45:20.913Z,103038.78
2022-11-12T14:47:52.770Z,103026.50
2022-11-12T14:50:28.832Z,103022.16
2022-11-12T14:53:02.538Z,103020.34
2022-11-12T14:55:35.185Z,103015.97
2022-11-12T14:58:05.979Z,103022.84
2022-11-12T15:00:44.854Z,103011.53
2022-11-12T15:03:20.435Z,103011.53
2022-11-12T15:06:02.696Z,103006.97
2022-11-12T15:08:35.616Z,102997.16
2022-11-12T15:11:23.472Z,102999.78
2022-11-12T15:13:54.504Z,103001.41
2022-11-12T15:16:27.307Z,102989.66
2022-11-12T15:19:19.240Z,102993.78
2022-11-12T15:21:53.557Z,102992.69
2022-11-12T15:24:29.681Z,102997.53
2022-11-12T15:27:01.312Z,102991.88
2022-11-12T15:29:34.141Z,102983.84
2022-11-12T15:32:08.645Z,102983.78
2022-11-12T15:34:50.610Z,102976.78
2022-11-12T15:37:28.899Z,102980.22
2022-11-12T15:40:02.228Z,102977.50
2022-11-12T15:42:36.894Z,102989.63
2022-11-12T15:45:16.188Z,102981.66
2022-11-12T15:47:46.291Z,102992.06
2022-11-12T15:50:20.426Z,102987.63
2022-11-12T15:52:53.387Z,102990.03
2022-11-12T15:55:23.172Z,102988.00
2022-11-12T15:57:55.129Z,102987.69
2022-11-12T16:00:27.459Z,102990.13
2022-11-12T16:03:00.424Z,102997.72
2022-11-12T16:05:30.131Z,102999.63
2022-11-12T16:08:02.616Z,102989.03
2022-11-12T16:10:32.416Z,102998.72
2022-11-12T16:13:03.741Z,102985.00
2022-11-12T16:15:33.704Z,102993.25
2022-11-12T16:18:03.440Z,102997.19
2022-11-12T16:20:35.042Z,102997.78
2022-11-12T16:23:07.495Z,103000.06
2022-11-12T16:25:39.968Z,103008.66
2022-11-12T16:28:16.055Z,103003.19
2022-11-12T16:30:46.716Z,103000.47
2022-11-12T16:33:17.230Z,102993.38
2022-11-12T16:35:47.027Z,102993.28
2022-11-12T16:38:21.552Z,102992.25
2022-11-12T16:40:51.305Z,102996.34
2022-11-12T16:43:21.027Z,102997.88
2022-11-12T16:45:50.731Z,102995.72
2022-11-12T16:48:22.649Z,102993.66
2022-11-12T16:50:52.641Z,102998.00
2022-11-12T16:53:25.154Z,103001.56
2022-11-12T16:55:55.199Z,103000.53
2022-11-12T16:58:24.879Z,102997.13
2022-11-12T17:00:55.698Z,102994.47
2022-11-12T17:03:25.639Z,102990.13
2022-11-12T17:05:55.946Z,103003.16
2022-11-12T17:08:33.770Z,103001.34
2022-11-12T17:11:10.066Z,103011.72
2022-11-12T17:13:41.190Z,102997.69
2022-11-12T17:16:11.651Z,102999.50
2022-11-12T17:18:41.574Z,102993.44
2022-11-12T17:21:13.440Z,102992.75
2022-11-12T17:23:45.876Z,102986.81
2022-11-12T17:26:16.855Z,102984.75
2022-11-12T17:28:46.743Z,102979.28
2022-11-12T17:31:18.535Z,102974.72
2022-11-12T17:33:50.036Z,102965.03
2022-11-12T17:36:22.091Z,102975.63
2022-11-12T17:38:57.095Z,102969.69
2022-11-12T17:41:28.498Z,102970.59
2022-11-12T17:43:58.931Z,102974.03
2022-11-12T17:46:29.763Z,102970.16
2022-11-12T17:48:59.737Z,102964.69
2022-11-12T17:51:31.089Z,102971.66
2022-11-12T17:54:03.397Z,102972.59
2022-11-12T17:56:36.898Z,102985.94
2022-11-12T17:59:07.569Z,102976.44
2022-11-12T18:01:38.063Z,102985.34
2022-11-12T18:04:08.024Z,102985.34
2022-11-12T18:06:37.939Z,102983.63
2022-11-12T18:09:15.473Z,102987.16
2022-11-12T18:11:48.312Z,102977.47
2022-11-12T18:14:19.056Z,102979.97
2022-11-12T18:16:48.985Z,102979.06
2022-11-12T18:19:18.695Z,102974.59
2022-11-12T18:21:48.561Z,102984.13
2022-11-12T18:24:20.842Z,102982.19
2022-11-12T18:26:50.681Z,102972.47
2022-11-12T18:29:20.412Z,102977.72
2022-11-12T18:31:51.193Z,102964.47
2022-11-12T18:34:20.901Z,102974.06
2022-11-12T18:36:50.570Z,102965.19
2022-11-12T18:39:22.907Z,102966.88
2022-11-12T18:41:52.703Z,102968.38
2022-11-12T18:44:26.055Z,102974.53
2022-11-12T18:46:56.015Z,102976.13
2022-11-12T18:49:25.886Z,102980.34
2022-11-12T18:51:55.894Z,102982.97
2022-11-12T18:54:28.185Z,102968.03
2022-11-12T18:56:57.912Z,102967.00
2022-11-12T18:59:30.825Z,102970.44
2022-11-12T19:02:00.967Z,102962.44
2022-11-12T19:04:30.990Z,102959.72
2022-11-12T19:07:00.787Z,102962.22
2022-11-12T19:09:33.124Z,102959.47
2022-11-12T19:12:02.859Z,102960.97
2022-11-12T19:14:33.019Z,102960.06
2022-11-12T19:17:02.726Z,102965.19
2022-11-12T19:19:32.447Z,102965.91
2022-11-12T19:22:02.176Z,102970.25
2022-11-12T19:24:34.488Z,102972.75
2022-11-12T19:27:04.213Z,102966.50
2022-11-12T19:29:33.923Z,102960.22
2022-11-12T19:32:03.613Z,102961.81
2022-11-12T19:34:33.350Z,102959.06
2022-11-12T19:37:31.821Z,102962.34
2022-11-12T19:39:55.352Z,102964.09
2022-11-12T19:42:25.120Z,102963.97
2022-11-12T19:44:54.839Z,102956.91
2022-11-12T19:47:24.564Z,102966.38
2022-11-12T19:49:54.260Z,102971.41
2022-11-12T19:52:24.624Z,102968.63
2022-11-12T19:54:56.924Z,102964.22
2022-11-12T19:57:27.881Z,102964.06
2022-11-12T19:59:57.656Z,102961.38
2022-11-12T20:02:27.472Z,102959.41
2022-11-12T20:04:57.251Z,102963.63
2022-11-12T20:07:27.015Z,102961.56
2022-11-12T20:10:01.129Z,102953.59
2022-11-12T20:12:32.437Z,102950.84
2022-11-12T20:15:02.173Z,102948.13
2022-11-12T20:17:34.802Z,102950.75
2022-11-12T20:20:04.658Z,102957.69
2022-11-12T20:22:34.640Z,102949.72
2022-11-12T20:25:07.467Z,102950.50
2022-11-12T20:27:37.197Z,102947.88
2022-11-12T20:30:08.256Z,102947.88
2022-11-12T20:32:37.971Z,102944.34
2022-11-12T20:35:15.290Z,102946.97
2022-11-12T20:37:53.308Z,102950.41
2022-11-12T20:40:25.631Z,102946.06
2022-11-12T20:42:55.404Z,102947.78
2022-11-12T20:45:25.209Z,102947.78
2022-11-12T20:47:54.908Z,102945.94
2022-11-12T20:50:25.034Z,102950.41
2022-11-12T20:52:54.725Z,102956.44
2022-11-12T20:55:27.209Z,102952.09
2022-11-12T20:57:56.915Z,102958.16
2022-11-12T21:00:26.662Z,102955.53
2022-11-12T21:02:56.356Z,102956.34
2022-11-12T21:05:26.240Z,102951.09
2022-11-12T21:07:58.350Z,102953.81
2022-11-12T21:10:30.721Z,102950.16
2022-11-12T21:13:00.391Z,102946.53
2022-11-12T21:15:30.272Z,102947.44
2022-11-12T21:17:59.987Z,102952.56
2022-11-12T21:20:29.689Z,102949.16
2022-11-12T21:23:00.287Z,102943.09
2022-11-12T21:25:32.587Z,102950.97
2022-11-12T21:28:02.296Z,102947.66
2022-11-12T21:30:32.113Z,102944.22
2022-11-12T21:33:02.458Z,102945.94
2022-11-12T21:35:32.182Z,102948.69
2022-11-12T21:38:01.884Z,102939.91
2022-11-12T21:40:34.193Z,102938.97
2022-11-12T21:43:07.271Z,102936.25
2022-11-12T21:45:37.019Z,102927.56
2022-11-12T21:48:07.191Z,102928.47
2022-11-12T21:50:36.872Z,102934.53
2022-11-12T21:53:06.619Z,102935.34
2022-11-12T21:55:38.940Z,102924.59
2022-11-12T21:58:08.706Z,102932.38
2022-11-12T22:00:42.730Z,102915.72
2022-11-12T22:03:12.704Z,102915.72
2022-11-12T22:05:42.459Z,102914.00
2022-11-12T22:08:12.207Z,102910.50
2022-11-12T22:10:44.518Z,102911.41
2022-11-12T22:13:26.914Z,102920.03
2022-11-12T22:15:57.196Z,102916.50
2022-11-12T22:18:27.253Z,102918.22
2022-11-12T22:21:01.060Z,102924.38
2022-11-12T22:23:32.992Z,102926.09
2022-11-12T22:26:07.051Z,102917.31
2022-11-12T22:28:37.086Z,102915.59
2022-11-12T22:31:07.806Z,102916.41
2022-11-12T22:33:37.783Z,102909.31
2022-11-12T22:36:09.811Z,102913.78
2022-11-12T22:38:41.287Z,102911.19
2022-11-12T22:41:15.443Z,102911.94
2022-11-12T22:43:45.263Z,102905.66
2022-11-12T22:46:17.096Z,102903.88
2022-11-12T22:48:47.192Z,102902.06
2022-11-12T22:51:18.884Z,102903.72
2022-11-12T22:53:48.875Z,102904.53
2022-11-12T22:56:21.190Z,102912.53
2022-11-12T22:58:51.475Z,102906.34
2022-11-12T23:01:23.786Z,102908.19
2022-11-12T23:03:54.828Z,102914.34
2022-11-12T23:06:25.251Z,102921.41
2022-11-12T23:08:56.638Z,102918.56
2022-11-12T23:11:29.674Z,102907.28
2022-11-12T23:13:59.687Z,102900.22
2022-11-12T23:16:33.224Z,102897.59
2022-11-12T23:19:02.931Z,102907.84
2022-11-12T23:21:33.098Z,102899.84
2022-11-12T23:24:02.923Z,102898.84
2022-11-12T23:26:35.251Z,102903.16
2022-11-12T23:29:04.922Z,102893.34
2022-11-12T23:31:35.088Z,102897.69
2022-11-12T23:34:04.819Z,102888.78
2022-11-12T23:36:34.994Z,102891.31
2022-11-12T23:39:04.695Z,102891.19
2022-11-12T23:41:37.044Z,102886.75
2022-11-12T23:44:06.808Z,102887.44
2022-11-12T23:46:36.492Z,102879.44
2022-11-12T23:49:06.230Z,102885.50
2022-11-12T23:51:35.963Z,102877.63
2022-11-12T23:54:06.843Z,102870.44
2022-11-12T23:56:39.218Z,102873.97
2022-11-12T23:59:08.960Z,102868.75
